Time,TemperatureF,DewpointF,PressureIn,WindDirection,WindDirectionDegrees,WindSpeedMPH,WindSpeedGustMPH,Humidity,HourlyPrecipIn,Conditions,Clouds,dailyrainin,SolarRadiationWatts/m^2,SoftwareType,DateUTC
2013-02-19 00:00:00,38.1,34.9,30.23,NE,56,0.0,23.0,88,0.00,,,5.12,0,Wunderground v.1.15,2013-02-19 05:00:00,
2013-02-19 01:00:00,36.6,34.5,30.23,NNW,348,0.0,23.0,92,0.00,,,0.00,0,Wunderground v.1.15,2013-02-19 06:00:00,
2013-02-19 02:00:00,37.0,35.4,30.23,NNW,348,0.0,23.0,94,0.00,,,0.00,0,Wunderground v.1.15,2013-02-19 07:00:00,
2013-02-19 03:00:00,36.5,34.9,30.22,NNW,348,0.0,23.0,94,0.00,,,0.00,0,Wunderground v.1.15,2013-02-19 08:00:00,
2013-02-19 04:00:00,38.9,37.9,30.20,NNW,348,0.0,23.0,96,0.00,,,0.00,0,Wunderground v.1.15,2013-02-19 09:00:00,
2013-02-19 05:00:00,38.8,37.5,30.18,NNW,348,0.0,23.0,95,0.00,,,0.00,0,Wunderground v.1.15,2013-02-19 10:00:00,
2013-02-19 06:00:00,38.6,37.6,30.19,NNW,348,0.0,23.0,96,0.00,,,0.00,0,Wunderground v.1.15,2013-02-19 11:00:00,
2013-02-19 08:00:00,-999.9,-99.9,30.19,North,32767,-999.0,23.0,255,-99.99,,,0.00,,Wunderground v.1.15,2013-02-19 13:00:00,
2013-02-19 09:00:00,-999.9,-99.9,30.21,North,32767,-999.0,23.0,255,-99.99,,,0.00,,Wunderground v.1.15,2013-02-19 14:00:00,
2013-02-19 10:00:00,70.0,55.5,30.20,SSE,155,7.0,23.0,60,0.00,,,0.00,571,Wunderground v.1.15,2013-02-19 15:00:00,
2013-02-19 11:00:00,73.2,52.9,30.20,SSE,148,9.0,23.0,49,0.00,,,0.00,747,Wunderground v.1.15,2013-02-19 16:00:00,
2013-02-19 12:00:00,73.9,53.0,30.18,SW,220,12.0,23.0,48,0.00,,,0.00,772,Wunderground v.1.15,2013-02-19 17:00:00,
2013-02-19 13:00:00,75.5,53.9,30.15,SSW,205,10.0,23.0,47,0.00,,,0.00,921,Wunderground v.1.15,2013-02-19 18:00:00,
2013-02-19 14:00:00,77.2,53.0,30.12,SSW,207,10.0,23.0,43,0.00,,,0.00,898,Wunderground v.1.15,2013-02-19 19:00:00,
2013-02-19 15:00:00,76.6,54.3,30.10,WSW,250,9.0,23.0,46,0.00,,,0.00,701,Wunderground v.1.15,2013-02-19 20:00:00,
2013-02-19 16:00:00,76.0,52.5,30.08,West,267,10.0,23.0,44,0.00,,,0.00,93,Wunderground v.1.15,2013-02-19 21:00:00,
2013-02-19 17:00:00,75.2,52.4,30.08,WNW,292,8.0,23.0,45,0.00,,,0.00,213,Wunderground v.1.15,2013-02-19 22:00:00,
2013-02-19 18:00:00,71.0,52.5,30.10,West,260,5.0,23.0,52,0.00,,,0.00,26,Wunderground v.1.15,2013-02-19 23:00:00,
2013-02-19 19:00:00,64.5,52.5,30.10,West,259,2.0,23.0,65,0.00,,,0.00,0,Wunderground v.1.15,2013-02-20 00:00:00,
2013-02-19 20:00:00,58.5,50.2,30.11,WSW,258,1.0,23.0,74,0.00,,,0.00,0,Wunderground v.1.15,2013-02-20 01:00:00,
2013-02-19 21:00:00,52.8,47.8,30.13,WSW,258,0.0,23.0,83,0.00,,,0.00,0,Wunderground v.1.15,2013-02-20 02:00:00,
2013-02-19 22:01:00,49.4,46.6,30.12,WSW,258,1.0,23.0,90,0.00,,,0.00,0,Wunderground v.1.15,2013-02-20 03:01:00,
2013-02-19 23:00:00,48.2,45.7,30.11,West,264,0.0,23.0,91,0.00,,,0.00,0,Wunderground v.1.15,2013-02-20 04:00:00,